| time (UTC) | temp C | wind direction | speed KPH | gust KPH | rain 1hr cm | rain 24hr cm | rain mn cm | humidity % | barometer mb |
| 20260506163422 | 11 | 22 | 6.4 | 9.7 | 0.00 | 0.00 | 0.00 | 87 | 1020.2 |
| 20260506162521 | 11 | 22 | 4.8 | 6.4 | 0.00 | 0.00 | 0.00 | 86 | 1020.4 |
| 20260506161524 | 11 | 22 | 6.4 | 8.0 | 0.00 | 0.00 | 0.00 | 87 | 1020.6 |
| 20260506160537 | 11 | 45 | 0.0 | 4.8 | 0.00 | 0.00 | 0.00 | 87 | 1020.5 |
| 20260506155623 | 11 | 22 | 3.2 | 4.8 | 0.00 | 0.00 | 0.00 | 87 | 1020.4 |
| 20260506154722 | 11 | 22 | 3.2 | 4.8 | 0.00 | 0.00 | 0.00 | 87 | 1020.4 |
| 20260506153723 | 11 | 22 | 3.2 | 6.4 | 0.00 | 0.00 | 0.00 | 86 | 1020.3 |
| 20260506152723 | 11 | 360 | 3.2 | 6.4 | 0.00 | 0.00 | 0.00 | 87 | 1020.1 |
| 20260506151723 | 11 | 22 | 4.8 | 8.0 | 0.00 | 0.00 | 0.00 | 86 | 1019.9 |
| 20260506150723 | 11 | 19 | 6.4 | 8.0 | 0.00 | 0.00 | 0.00 | 86 | 1019.7 |
| 20260506145724 | 10 | 22 | 0.0 | 4.8 | 0.00 | 0.00 | 0.00 | 86 | 1019.6 |
| 20260506144723 | 10 | 22 | 4.8 | 9.7 | 0.00 | 0.00 | 0.00 | 86 | 1019.4 |
| 20260506142725 | 10 | 58 | 1.6 | 4.8 | 0.00 | 0.00 | 0.00 | 85 | 1019.6 |
| 20260506141823 | 10 | 45 | 3.2 | 4.8 | 0.00 | 0.00 | 0.00 | 85 | 1019.5 |
| 20260506134838 | 10 | 22 | 3.2 | 6.4 | 0.00 | 0.00 | 0.00 | 85 | 1018.9 |
| 20260506133922 | 9 | 45 | 4.8 | 6.4 | 0.00 | 0.00 | 0.00 | 84 | 1018.9 |
| 20260506132923 | 9 | 22 | 6.4 | 9.7 | 0.00 | 0.00 | 0.00 | 85 | 1018.9 |
| 20260506132022 | 10 | 22 | 4.8 | 8.0 | 0.00 | 0.00 | 0.00 | 85 | 1019.0 |
| 20260506130023 | 9 | 45 | 1.6 | 4.8 | 0.00 | 0.00 | 0.00 | 83 | 1019.3 |
| 20260506125023 | 9 | 108 | 0.0 | 3.2 | 0.00 | 0.00 | 0.00 | 83 | 1019.1 |
| 20260506124022 | 9 | 180 | 0.0 | 1.6 | 0.00 | 0.00 | 0.00 | 83 | 1019.3 |
| 20260506123024 | 9 | 180 | 0.0 | 0.0 | 0.00 | 0.00 | 0.00 | 84 | 1018.9 |
| 20260506122022 | 9 | 135 | 0.0 | 0.0 | 0.00 | 0.00 | 0.00 | 84 | 1018.7 |
| 20260506121922 | 10 | 135 | 0.0 | 1.6 | 0.00 | 0.00 | 0.00 | 83 | 1018.7 |
| 20260506120923 | 10 | 67 | 0.0 | 3.2 | 0.00 | 0.00 | 0.00 | 84 | 1018.6 |
| 20260506115923 | 10 | 45 | 1.6 | 3.2 | 0.00 | 0.00 | 0.00 | 83 | 1018.4 |
| 20260506114924 | 10 | 29 | 3.2 | 6.4 | 0.00 | 0.00 | 0.00 | 83 | 1018.4 |
| 20260506113939 | 10 | 45 | 1.6 | 4.8 | 0.00 | 0.00 | 0.00 | 83 | 1018.6 |
| 20260506112025 | 10 | 33 | 1.6 | 4.8 | 0.00 | 0.00 | 0.00 | 83 | 1018.5 |
| 20260506111123 | 10 | 22 | 3.2 | 6.4 | 0.00 | 0.00 | 0.00 | 82 | 1018.3 |
| 20260506110141 | 10 | 45 | 6.4 | 6.4 | 0.00 | 0.00 | 0.00 | 82 | 1018.2 |
| 20260506105125 | 10 | 40 | 4.8 | 8.0 | 0.00 | 0.00 | 0.00 | 82 | 1017.9 |
| 20260506104140 | 10 | 37 | 6.4 | 11.3 | 0.00 | 0.00 | 0.00 | 81 | 1017.8 |
| 20260506103124 | 10 | 40 | 6.4 | 11.3 | 0.00 | 0.00 | 0.00 | 82 | 1017.7 |
| 20260506102222 | 10 | 38 | 8.0 | 11.3 | 0.00 | 0.00 | 0.00 | 81 | 1017.5 |
| 20260506101224 | 10 | 45 | 4.8 | 6.4 | 0.00 | 0.00 | 0.00 | 81 | 1017.5 |
| 20260506100225 | 10 | 45 | 6.4 | 8.0 | 0.00 | 0.00 | 0.00 | 81 | 1017.5 |
| 20260506095323 | 10 | 62 | 4.8 | 6.4 | 0.00 | 0.00 | 0.00 | 81 | 1017.5 |
| 20260506094340 | 10 | 40 | 6.4 | 9.7 | 0.00 | 0.00 | 0.00 | 81 | 1017.6 |
| 20260506093423 | 10 | 44 | 6.4 | 9.7 | 0.00 | 0.00 | 0.00 | 80 | 1017.6 |
| 20260506092425 | 10 | 45 | 6.4 | 8.0 | 0.00 | 0.00 | 0.00 | 81 | 1017.5 |
| 20260506091426 | 10 | 55 | 6.4 | 11.3 | 0.00 | 0.00 | 0.00 | 80 | 1017.5 |
| 20260506090522 | 10 | 45 | 8.0 | 9.7 | 0.00 | 0.00 | 0.00 | 80 | 1017.5 |
| 20260506085523 | 10 | 51 | 3.2 | 6.4 | 0.00 | 0.00 | 0.00 | 80 | 1017.3 |
| 20260506083539 | 10 | 45 | 9.7 | 11.3 | 0.00 | 0.00 | 0.00 | 80 | 1017.2 |
| 20260506082623 | 10 | 46 | 4.8 | 8.0 | 0.00 | 0.00 | 0.00 | 80 | 1017.1 |
| 20260506081623 | 11 | 45 | 4.8 | 8.0 | 0.00 | 0.00 | 0.00 | 79 | 1017.3 |
| 20260506080622 | 11 | 45 | 6.4 | 9.7 | 0.00 | 0.00 | 0.00 | 79 | 1017.2 |
| 20260506072625 | 11 | 45 | 3.2 | 4.8 | 0.00 | 0.00 | 0.00 | 79 | 1016.9 |
| 20260506071723 | 11 | 83 | 1.6 | 4.8 | 0.00 | 0.00 | 0.00 | 79 | 1016.9 |
| 20260506070740 | 11 | 41 | 4.8 | 9.7 | 0.00 | 0.00 | 0.00 | 79 | 1016.8 |
| 20260506062014 | 12 | 45 | 3.2 | 4.8 | 0.00 | 0.00 | 0.00 | 77 | 1016.6 |
| 20260506061015 | 12 | 22 | 0.0 | 1.6 | 0.00 | 0.00 | 0.00 | 78 | 1016.7 |
| 20260506051133 | 12 | 112 | 0.0 | 0.0 | 0.00 | 0.00 | 0.00 | 75 | 1016.6 |
| 20260506043416 | 12 | 86 | 1.6 | 3.2 | 0.00 | 0.00 | 0.00 | 75 | 1016.4 |
| 20260506042514 | 12 | 67 | 1.6 | 3.2 | 0.00 | 0.00 | 0.00 | 76 | 1016.2 |
| 20260506041517 | 13 | 67 | 0.0 | 1.6 | 0.00 | 0.00 | 0.00 | 75 | 1016.1 |
| 20260506040533 | 13 | 67 | 0.0 | 1.6 | 0.00 | 0.00 | 0.00 | 76 | 1016.1 |
| 20260506034416 | 13 | 67 | 1.6 | 3.2 | 0.00 | 0.00 | 0.00 | 74 | 1015.9 |
| 20260506033415 | 13 | 45 | 1.6 | 3.2 | 0.00 | 0.00 | 0.00 | 74 | 1015.8 |
| 20260506032415 | 14 | 90 | 1.6 | 1.6 | 0.00 | 0.00 | 0.00 | 74 | 1015.6 |
| 20260506031415 | 14 | 50 | 1.6 | 3.2 | 0.00 | 0.00 | 0.00 | 75 | 1015.5 |
| 20260506030417 | 14 | 130 | 0.0 | 1.6 | 0.00 | 0.00 | 0.00 | 75 | 1015.6 |
| 20260506025416 | 14 | 112 | 1.6 | 3.2 | 0.00 | 0.00 | 0.00 | 75 | 1015.4 |
| 20260506024514 | 15 | 112 | 1.6 | 3.2 | 0.00 | 0.00 | 0.00 | 74 | 1015.6 |
| 20260506024417 | 15 | 112 | 1.6 | 1.6 | 0.00 | 0.00 | 0.00 | 74 | 1015.6 |
| 20260506023515 | 15 | 74 | 0.0 | 0.0 | 0.00 | 0.00 | 0.00 | 74 | 1015.5 |
| 20260506022518 | 15 | 90 | 1.6 | 3.2 | 0.00 | 0.00 | 0.00 | 75 | 1015.7 |
| 20260506021616 | 15 | 90 | 1.6 | 3.2 | 0.00 | 0.00 | 0.00 | 76 | 1015.6 |
| 20260506020616 | 15 | 90 | 1.6 | 3.2 | 0.00 | 0.00 | 0.00 | 76 | 1015.6 |
| 20260506014814 | 15 | 90 | 3.2 | 4.8 | 0.00 | 0.00 | 0.00 | 75 | 1015.5 |
| 20260506013816 | 15 | 90 | 3.2 | 3.2 | 0.00 | 0.00 | 0.00 | 75 | 1015.4 |
| 20260506011917 | 15 | 63 | 3.2 | 4.8 | 0.00 | 0.00 | 0.00 | 76 | 1015.5 |
| 20260506010916 | 16 | 90 | 3.2 | 3.2 | 0.00 | 0.00 | 0.00 | 76 | 1015.4 |
| 20260506010014 | 16 | 90 | 3.2 | 4.8 | 0.00 | 0.00 | 0.00 | 76 | 1015.4 |
| 20260506005916 | 16 | 90 | 3.2 | 3.2 | 0.00 | 0.00 | 0.00 | 76 | 1015.4 |
| 20260506005833 | 16 | 90 | 3.2 | 3.2 | 0.00 | 0.00 | 0.00 | 76 | 1015.3 |
| 20260506004915 | 16 | 90 | 3.2 | 4.8 | 0.00 | 0.00 | 0.00 | 75 | 1015.3 |
| 20260506003932 | 16 | 67 | 1.6 | 3.2 | 0.00 | 0.00 | 0.00 | 76 | 1015.5 |
| 20260506002015 | 16 | 62 | 3.2 | 6.4 | 0.00 | 0.00 | 0.00 | 77 | 1015.5 |
| 20260506001016 | 16 | 48 | 6.4 | 9.7 | 0.00 | 0.00 | 0.00 | 77 | 1015.6 |
| 20260506000018 | 16 | 59 | 4.8 | 6.4 | 0.00 | 0.00 | 0.00 | 76 | 1015.6 |
| 20260505235116 | 16 | 67 | 3.2 | 6.4 | 0.00 | 0.00 | 0.00 | 77 | 1015.7 |
| 20260505234118 | 16 | 45 | 4.8 | 6.4 | 0.00 | 0.00 | 0.00 | 76 | 1015.8 |
| 20260505233131 | 16 | 45 | 3.2 | 4.8 | 0.00 | 0.00 | 0.00 | 77 | 1015.8 |
| 20260505232116 | 16 | 36 | 6.4 | 6.4 | 0.00 | 0.00 | 0.00 | 78 | 1016.0 |
| 20260505231115 | 16 | 67 | 3.2 | 4.8 | 0.00 | 0.00 | 0.00 | 78 | 1016.1 |
| 20260505231014 | 16 | 67 | 3.2 | 4.8 | 0.00 | 0.00 | 0.00 | 78 | 1016.2 |
| 20260505230034 | 16 | 67 | 3.2 | 4.8 | 0.00 | 0.00 | 0.00 | 78 | 1016.2 |
| 20260505225115 | 16 | 56 | 3.2 | 4.8 | 0.00 | 0.00 | 0.00 | 78 | 1016.1 |
| 20260505224115 | 16 | 45 | 4.8 | 6.4 | 0.00 | 0.00 | 0.00 | 78 | 1016.2 |
| 20260505223117 | 16 | 45 | 4.8 | 9.7 | 0.00 | 0.00 | 0.00 | 77 | 1016.4 |
| 20260505222116 | 16 | 45 | 4.8 | 6.4 | 0.00 | 0.00 | 0.00 | 78 | 1016.4 |
| 20260505221215 | 16 | 72 | 3.2 | 4.8 | 0.00 | 0.00 | 0.00 | 79 | 1016.5 |
| 20260505220115 | 16 | 22 | 4.8 | 6.4 | 0.00 | 0.00 | 0.00 | 79 | 1016.5 |
| 20260505215117 | 16 | 45 | 4.8 | 6.4 | 0.00 | 0.00 | 0.00 | 78 | 1016.5 |
| 20260505214115 | 16 | 45 | 4.8 | 6.4 | 0.00 | 0.00 | 0.00 | 79 | 1016.6 |
| 20260505213132 | 15 | 45 | 4.8 | 6.4 | 0.00 | 0.00 | 0.00 | 78 | 1016.7 |
| 20260505212131 | 15 | 47 | 4.8 | 6.4 | 0.00 | 0.00 | 0.00 | 79 | 1016.8 |
| 20260505211218 | 15 | 42 | 8.0 | 11.3 | 0.00 | 0.00 | 0.00 | 78 | 1016.7 |
| 20260505210215 | 15 | 45 | 3.2 | 8.0 | 0.00 | 0.00 | 0.00 | 79 | 1016.8 |
| 20260505205232 | 15 | 52 | 4.8 | 8.0 | 0.00 | 0.00 | 0.00 | 79 | 1016.8 |
| 20260505204231 | 14 | 30 | 9.7 | 11.3 | 0.00 | 0.00 | 0.00 | 79 | 1016.9 |
| 20260505203231 | 14 | 66 | 1.6 | 4.8 | 0.00 | 0.00 | 0.00 | 78 | 1016.9 |
| 20260505202232 | 14 | 45 | 3.2 | 4.8 | 0.00 | 0.00 | 0.00 | 77 | 1016.8 |
| 20260505201215 | 14 | 31 | 6.4 | 11.3 | 0.00 | 0.00 | 0.00 | 78 | 1016.8 |
| 20260505200217 | 13 | 15 | 6.4 | 8.0 | 0.00 | 0.00 | 0.00 | 78 | 1016.9 |
| 20260505195315 | 13 | 36 | 4.8 | 9.7 | 0.00 | 0.00 | 0.00 | 78 | 1016.9 |
| 20260505194316 | 13 | 22 | 8.0 | 11.3 | 0.00 | 0.00 | 0.00 | 77 | 1016.9 |
| 20260505191417 | 13 | 31 | 8.0 | 11.3 | 0.00 | 0.00 | 0.00 | 78 | 1016.8 |
| 20260505190433 | 13 | 26 | 6.4 | 8.0 | 0.00 | 0.00 | 0.00 | 78 | 1016.8 |
| 20260505185416 | 13 | 22 | 8.0 | 14.5 | 0.00 | 0.00 | 0.00 | 77 | 1016.9 |
| 20260505184514 | 13 | 40 | 6.4 | 9.7 | 0.00 | 0.00 | 0.00 | 78 | 1017.0 |
| 20260505183516 | 13 | 37 | 6.4 | 8.0 | 0.00 | 0.00 | 0.00 | 77 | 1016.9 |
| 20260505182518 | 13 | 24 | 6.4 | 8.0 | 0.00 | 0.00 | 0.00 | 76 | 1016.8 |
| 20260505181615 | 13 | 30 | 8.0 | 12.9 | 0.00 | 0.00 | 0.00 | 76 | 1016.7 |
| 20260505180714 | 13 | 48 | 4.8 | 6.4 | 0.00 | 0.00 | 0.00 | 77 | 1016.7 |
| 20260505175732 | 13 | 40 | 8.0 | 16.1 | 0.00 | 0.00 | 0.00 | 77 | 1016.7 |
| 20260505172831 | 13 | 45 | 6.4 | 8.0 | 0.00 | 0.00 | 0.00 | 76 | 1016.7 |
| 20260505171817 | 12 | 45 | 4.8 | 4.8 | 0.00 | 0.00 | 0.00 | 75 | 1016.8 |
| 20260505170814 | 12 | 45 | 4.8 | 4.8 | 0.00 | 0.00 | 0.00 | 74 | 1016.8 |
| 20260505170717 | 12 | 63 | 3.2 | 6.4 | 0.00 | 0.00 | 0.00 | 74 | 1016.7 |
| 20260505165715 | 12 | 45 | 6.4 | 9.7 | 0.00 | 0.00 | 0.00 | 74 | 1016.7 |
| 20260505164716 | 12 | 72 | 3.2 | 4.8 | 0.00 | 0.00 | 0.00 | 74 | 1016.8 |
| 20260505163732 | 11 | 90 | 3.2 | 3.2 | 0.00 | 0.00 | 0.00 | 74 | 1016.6 |